sensor_id;sensor_type;location;lat;lon;timestamp;pressure;altitude;pressure_sealevel;temperature;humidity
4022;BME280;2025;48.260;16.432;2023-06-04T00:01:04;100031.81;;;10.85;67.67
4022;BME280;2025;48.260;16.432;2023-06-04T00:03:31;100026.38;;;10.78;68.00
4022;BME280;2025;48.260;16.432;2023-06-04T00:05:59;100018.78;;;10.75;68.38
4022;BME280;2025;48.260;16.432;2023-06-04T00:08:26;100022.25;;;10.75;68.51
4022;BME280;2025;48.260;16.432;2023-06-04T00:10:53;100021.59;;;10.73;68.10
4022;BME280;2025;48.260;16.432;2023-06-04T00:13:20;100021.59;;;10.65;68.04
4022;BME280;2025;48.260;16.432;2023-06-04T00:15:47;100019.25;;;10.62;68.88
4022;BME280;2025;48.260;16.432;2023-06-04T00:18:14;100025.84;;;10.58;69.22
4022;BME280;2025;48.260;16.432;2023-06-04T00:20:41;100021.06;;;10.53;69.63
4022;BME280;2025;48.260;16.432;2023-06-04T00:23:09;100013.00;;;10.47;69.46
4022;BME280;2025;48.260;16.432;2023-06-04T00:25:36;100015.28;;;10.42;69.60
4022;BME280;2025;48.260;16.432;2023-06-04T00:28:03;100011.00;;;10.41;69.61
4022;BME280;2025;48.260;16.432;2023-06-04T00:30:30;100009.19;;;10.33;69.75
4022;BME280;2025;48.260;16.432;2023-06-04T00:32:58;100015.22;;;10.25;69.15
4022;BME280;2025;48.260;16.432;2023-06-04T00:35:25;100009.31;;;10.23;69.45
4022;BME280;2025;48.260;16.432;2023-06-04T00:37:52;100010.28;;;10.22;69.87
4022;BME280;2025;48.260;16.432;2023-06-04T00:40:20;100001.56;;;10.22;69.58
4022;BME280;2025;48.260;16.432;2023-06-04T00:42:47;100009.78;;;10.19;69.87
4022;BME280;2025;48.260;16.432;2023-06-04T00:45:15;100003.00;;;10.16;70.15
4022;BME280;2025;48.260;16.432;2023-06-04T00:47:44;100005.47;;;10.09;70.55
4022;BME280;2025;48.260;16.432;2023-06-04T00:50:11;100012.03;;;10.05;70.48
4022;BME280;2025;48.260;16.432;2023-06-04T00:52:38;100007.94;;;10.03;70.87
4022;BME280;2025;48.260;16.432;2023-06-04T00:55:06;100007.09;;;10.02;70.95
4022;BME280;2025;48.260;16.432;2023-06-04T00:57:35;100002.97;;;10.00;71.64
4022;BME280;2025;48.260;16.432;2023-06-04T01:00:02;100005.25;;;9.95;71.44
4022;BME280;2025;48.260;16.432;2023-06-04T01:02:32;100005.25;;;9.95;71.33
4022;BME280;2025;48.260;16.432;2023-06-04T01:05:06;100004.38;;;9.86;70.77
4022;BME280;2025;48.260;16.432;2023-06-04T01:07:38;100003.75;;;9.84;70.82
4022;BME280;2025;48.260;16.432;2023-06-04T01:10:11;100002.22;;;9.81;70.59
4022;BME280;2025;48.260;16.432;2023-06-04T01:12:40;100011.78;;;9.82;70.70
4022;BME280;2025;48.260;16.432;2023-06-04T01:15:08;99999.44;;;9.83;70.74
4022;BME280;2025;48.260;16.432;2023-06-04T01:17:38;99999.97;;;9.86;70.93
4022;BME280;2025;48.260;16.432;2023-06-04T01:20:19;99998.31;;;9.85;71.29
4022;BME280;2025;48.260;16.432;2023-06-04T01:22:56;100007.00;;;9.78;71.42
4022;BME280;2025;48.260;16.432;2023-06-04T01:25:33;100010.63;;;9.77;71.53
4022;BME280;2025;48.260;16.432;2023-06-04T01:28:04;100003.38;;;9.79;72.50
4022;BME280;2025;48.260;16.432;2023-06-04T01:30:33;100001.41;;;9.81;73.22
4022;BME280;2025;48.260;16.432;2023-06-04T01:33:02;99999.78;;;9.80;73.66
4022;BME280;2025;48.260;16.432;2023-06-04T01:35:29;99997.97;;;9.80;73.40
4022;BME280;2025;48.260;16.432;2023-06-04T01:37:57;99998.91;;;9.71;72.90
4022;BME280;2025;48.260;16.432;2023-06-04T01:40:24;99999.06;;;9.69;72.80
4022;BME280;2025;48.260;16.432;2023-06-04T01:42:52;100003.50;;;9.69;72.69
4022;BME280;2025;48.260;16.432;2023-06-04T01:45:20;100006.81;;;9.71;72.89
4022;BME280;2025;48.260;16.432;2023-06-04T01:47:47;99999.06;;;9.69;73.96
4022;BME280;2025;48.260;16.432;2023-06-04T01:50:15;100001.53;;;9.71;73.32
4022;BME280;2025;48.260;16.432;2023-06-04T01:52:42;99989.88;;;9.74;74.37
4022;BME280;2025;48.260;16.432;2023-06-04T01:55:10;99995.47;;;9.70;74.29
4022;BME280;2025;48.260;16.432;2023-06-04T01:57:38;99992.47;;;9.65;74.82
4022;BME280;2025;48.260;16.432;2023-06-04T02:00:08;99996.34;;;9.53;74.55
4022;BME280;2025;48.260;16.432;2023-06-04T02:02:38;99998.34;;;9.51;74.62
4022;BME280;2025;48.260;16.432;2023-06-04T02:05:06;99998.63;;;9.48;74.78
4022;BME280;2025;48.260;16.432;2023-06-04T02:07:34;99997.00;;;9.47;74.50
4022;BME280;2025;48.260;16.432;2023-06-04T02:10:04;99997.47;;;9.42;74.96
4022;BME280;2025;48.260;16.432;2023-06-04T02:12:31;100003.84;;;9.40;74.77
4022;BME280;2025;48.260;16.432;2023-06-04T02:14:58;100004.81;;;9.39;74.69
4022;BME280;2025;48.260;16.432;2023-06-04T02:17:25;99997.09;;;9.37;75.95
4022;BME280;2025;48.260;16.432;2023-06-04T02:19:53;99999.88;;;9.36;74.91
4022;BME280;2025;48.260;16.432;2023-06-04T02:22:22;99997.56;;;9.33;74.81
4022;BME280;2025;48.260;16.432;2023-06-04T02:24:49;99992.47;;;9.31;74.72
4022;BME280;2025;48.260;16.432;2023-06-04T02:27:16;99991.31;;;9.34;74.82
4022;BME280;2025;48.260;16.432;2023-06-04T02:29:43;99997.09;;;9.37;74.73
4022;BME280;2025;48.260;16.432;2023-06-04T02:32:10;99997.75;;;9.39;75.15
4022;BME280;2025;48.260;16.432;2023-06-04T02:34:37;99997.91;;;9.38;75.52
4022;BME280;2025;48.260;16.432;2023-06-04T02:37:06;99999.88;;;9.36;76.54
4022;BME280;2025;48.260;16.432;2023-06-04T02:39:33;100003.50;;;9.35;75.74
4022;BME280;2025;48.260;16.432;2023-06-04T02:42:00;100000.88;;;9.35;76.26
4022;BME280;2025;48.260;16.432;2023-06-04T02:44:27;100003.00;;;9.39;76.29
4022;BME280;2025;48.260;16.432;2023-06-04T02:46:56;100000.59;;;9.46;76.61
4022;BME280;2025;48.260;16.432;2023-06-04T02:49:23;99993.56;;;9.55;75.93
4022;BME280;2025;48.260;16.432;2023-06-04T02:51:50;99994.94;;;9.67;76.20
4022;BME280;2025;48.260;16.432;2023-06-04T02:54:18;100001.22;;;9.74;75.98
4022;BME280;2025;48.260;16.432;2023-06-04T02:56:45;100007.53;;;9.89;74.69
4022;BME280;2025;48.260;16.432;2023-06-04T02:59:15;99999.84;;;9.96;73.78
4022;BME280;2025;48.260;16.432;2023-06-04T03:01:43;100007.09;;;10.02;73.67
4022;BME280;2025;48.260;16.432;2023-06-04T03:04:10;100009.09;;;10.08;74.23
4022;BME280;2025;48.260;16.432;2023-06-04T03:06:41;100000.72;;;10.13;73.38
4022;BME280;2025;48.260;16.432;2023-06-04T03:09:11;100008.28;;;10.16;73.62
4022;BME280;2025;48.260;16.432;2023-06-04T03:11:40;100007.63;;;10.14;74.37
4022;BME280;2025;48.260;16.432;2023-06-04T03:14:07;100005.16;;;10.12;75.30
4022;BME280;2025;48.260;16.432;2023-06-04T03:16:34;100004.16;;;10.13;74.90
4022;BME280;2025;48.260;16.432;2023-06-04T03:19:05;99999.91;;;10.21;74.12
4022;BME280;2025;48.260;16.432;2023-06-04T03:21:32;99999.41;;;10.25;76.03
4022;BME280;2025;48.260;16.432;2023-06-04T03:23:59;100007.50;;;10.24;73.92
4022;BME280;2025;48.260;16.432;2023-06-04T03:26:26;100010.16;;;10.32;74.22
4022;BME280;2025;48.260;16.432;2023-06-04T03:28:54;100015.47;;;10.40;75.09
4022;BME280;2025;48.260;16.432;2023-06-04T03:31:21;100012.50;;;10.43;74.50
4022;BME280;2025;48.260;16.432;2023-06-04T03:33:48;100016.94;;;10.51;74.65
4022;BME280;2025;48.260;16.432;2023-06-04T03:36:15;100024.38;;;10.64;74.65
4022;BME280;2025;48.260;16.432;2023-06-04T03:38:45;100021.75;;;10.72;76.77
4022;BME280;2025;48.260;16.432;2023-06-04T03:41:12;100026.88;;;10.82;75.99
4022;BME280;2025;48.260;16.432;2023-06-04T03:43:39;100030.31;;;10.90;76.04
4022;BME280;2025;48.260;16.432;2023-06-04T03:46:07;100039.06;;;10.99;74.92
4022;BME280;2025;48.260;16.432;2023-06-04T03:48:34;100034.94;;;11.13;74.60
4022;BME280;2025;48.260;16.432;2023-06-04T03:51:01;100038.22;;;11.31;71.62
4022;BME280;2025;48.260;16.432;2023-06-04T03:53:28;100034.56;;;11.41;73.24
4022;BME280;2025;48.260;16.432;2023-06-04T03:55:55;100034.53;;;11.49;72.34
4022;BME280;2025;48.260;16.432;2023-06-04T03:58:22;100035.31;;;11.74;68.98
4022;BME280;2025;48.260;16.432;2023-06-04T04:00:49;100038.41;;;11.86;70.59
4022;BME280;2025;48.260;16.432;2023-06-04T04:03:18;100040.22;;;11.93;72.24
4022;BME280;2025;48.260;16.432;2023-06-04T04:05:45;100040.19;;;12.01;70.44
4022;BME280;2025;48.260;16.432;2023-06-04T04:08:12;100036.50;;;12.11;70.62
4022;BME280;2025;48.260;16.432;2023-06-04T04:10:41;100038.59;;;12.23;69.05
4022;BME280;2025;48.260;16.432;2023-06-04T04:13:08;100041.19;;;12.32;71.21
4022;BME280;2025;48.260;16.432;2023-06-04T04:15:35;100040.97;;;12.41;70.39
4022;BME280;2025;48.260;16.432;2023-06-04T04:18:02;100035.00;;;12.48;69.30
4022;BME280;2025;48.260;16.432;2023-06-04T04:20:31;100034.81;;;12.49;69.11
4022;BME280;2025;48.260;16.432;2023-06-04T04:22:58;100043.88;;;12.55;68.69
4022;BME280;2025;48.260;16.432;2023-06-04T04:25:25;100036.59;;;12.57;69.90
4022;BME280;2025;48.260;16.432;2023-06-04T04:27:52;100038.41;;;12.56;69.09
4022;BME280;2025;48.260;16.432;2023-06-04T04:30:22;100045.03;;;12.52;69.77
4022;BME280;2025;48.260;16.432;2023-06-04T04:32:49;100044.69;;;12.55;71.04
4022;BME280;2025;48.260;16.432;2023-06-04T04:35:17;100038.72;;;12.61;69.93
4022;BME280;2025;48.260;16.432;2023-06-04T04:37:46;100042.09;;;12.70;70.33
4022;BME280;2025;48.260;16.432;2023-06-04T04:40:13;100039.59;;;12.77;71.34
4022;BME280;2025;48.260;16.432;2023-06-04T04:42:40;100036.91;;;12.85;69.33
4022;BME280;2025;48.260;16.432;2023-06-04T04:45:09;100038.19;;;12.89;70.39
4022;BME280;2025;48.260;16.432;2023-06-04T04:47:36;100029.94;;;13.07;65.35
4022;BME280;2025;48.260;16.432;2023-06-04T04:50:04;100044.50;;;13.03;67.67
4022;BME280;2025;48.260;16.432;2023-06-04T04:52:31;100045.09;;;13.13;65.21
4022;BME280;2025;48.260;16.432;2023-06-04T04:55:00;100039.63;;;13.15;65.55
4022;BME280;2025;48.260;16.432;2023-06-04T04:57:27;100040.78;;;13.12;68.47
4022;BME280;2025;48.260;16.432;2023-06-04T04:59:53;100041.16;;;13.24;66.00
4022;BME280;2025;48.260;16.432;2023-06-04T05:02:20;100041.91;;;13.18;67.60
4022;BME280;2025;48.260;16.432;2023-06-04T05:04:48;100042.06;;;13.16;69.13
4022;BME280;2025;48.260;16.432;2023-06-04T05:07:14;100051.66;;;13.17;69.90
4022;BME280;2025;48.260;16.432;2023-06-04T05:09:41;100046.38;;;13.17;70.27
4022;BME280;2025;48.260;16.432;2023-06-04T05:12:10;100052.09;;;13.29;66.63
4022;BME280;2025;48.260;16.432;2023-06-04T05:14:37;100049.94;;;13.24;67.40
4022;BME280;2025;48.260;16.432;2023-06-04T05:17:04;100054.91;;;13.27;68.33
4022;BME280;2025;48.260;16.432;2023-06-04T05:19:31;100054.53;;;13.31;67.91
4022;BME280;2025;48.260;16.432;2023-06-04T05:21:59;100060.47;;;13.33;68.75
4022;BME280;2025;48.260;16.432;2023-06-04T05:24:26;100067.22;;;13.35;68.76
4022;BME280;2025;48.260;16.432;2023-06-04T05:26:54;100065.22;;;13.37;67.09
4022;BME280;2025;48.260;16.432;2023-06-04T05:29:23;100067.44;;;13.48;66.21
4022;BME280;2025;48.260;16.432;2023-06-04T05:31:50;100067.06;;;13.52;66.69
4022;BME280;2025;48.260;16.432;2023-06-04T05:34:17;100081.97;;;13.53;69.63
4022;BME280;2025;48.260;16.432;2023-06-04T05:36:44;100075.66;;;13.54;69.66
4022;BME280;2025;48.260;16.432;2023-06-04T05:39:11;100088.16;;;13.60;70.09
4022;BME280;2025;48.260;16.432;2023-06-04T05:41:39;100089.25;;;13.65;71.06
4022;BME280;2025;48.260;16.432;2023-06-04T05:44:07;100088.38;;;13.73;68.82
4022;BME280;2025;48.260;16.432;2023-06-04T05:46:36;100096.13;;;13.75;70.53
4022;BME280;2025;48.260;16.432;2023-06-04T05:49:03;100095.22;;;13.82;68.94
4022;BME280;2025;48.260;16.432;2023-06-04T05:51:30;100089.38;;;13.87;68.88
4022;BME280;2025;48.260;16.432;2023-06-04T05:53:57;100096.59;;;13.93;68.90
4022;BME280;2025;48.260;16.432;2023-06-04T05:56:24;100099.78;;;14.03;69.65
4022;BME280;2025;48.260;16.432;2023-06-04T05:58:52;100094.84;;;14.15;67.98
4022;BME280;2025;48.260;16.432;2023-06-04T06:01:19;100099.19;;;14.38;63.79
4022;BME280;2025;48.260;16.432;2023-06-04T06:03:48;100085.38;;;14.42;62.94
4022;BME280;2025;48.260;16.432;2023-06-04T06:06:15;100091.16;;;14.46;62.20
4022;BME280;2025;48.260;16.432;2023-06-04T06:08:43;100097.72;;;14.50;65.33
4022;BME280;2025;48.260;16.432;2023-06-04T06:11:11;100099.66;;;14.56;63.79
4022;BME280;2025;48.260;16.432;2023-06-04T06:13:38;100103.56;;;14.60;63.57
4022;BME280;2025;48.260;16.432;2023-06-04T06:16:05;100109.94;;;14.66;65.16
4022;BME280;2025;48.260;16.432;2023-06-04T06:18:32;100112.88;;;14.71;65.85
4022;BME280;2025;48.260;16.432;2023-06-04T06:21:00;100114.84;;;14.84;62.96
4022;BME280;2025;48.260;16.432;2023-06-04T06:23:27;100113.22;;;14.83;62.77
4022;BME280;2025;48.260;16.432;2023-06-04T06:25:54;100116.59;;;14.98;62.13
4022;BME280;2025;48.260;16.432;2023-06-04T06:28:21;100113.91;;;15.13;60.59
4022;BME280;2025;48.260;16.432;2023-06-04T06:30:48;100116.81;;;15.18;60.62
4022;BME280;2025;48.260;16.432;2023-06-04T06:33:15;100120.91;;;15.21;64.01
4022;BME280;2025;48.260;16.432;2023-06-04T06:35:47;100116.97;;;15.38;59.96
4022;BME280;2025;48.260;16.432;2023-06-04T06:38:15;100116.38;;;15.43;59.67
4022;BME280;2025;48.260;16.432;2023-06-04T06:40:42;100109.88;;;15.45;58.54
4022;BME280;2025;48.260;16.432;2023-06-04T06:43:09;100114.19;;;15.46;59.21
4022;BME280;2025;48.260;16.432;2023-06-04T06:45:36;100119.72;;;15.51;57.61
4022;BME280;2025;48.260;16.432;2023-06-04T06:48:04;100117.53;;;15.55;57.88
4022;BME280;2025;48.260;16.432;2023-06-04T06:50:31;100115.53;;;15.64;56.73
4022;BME280;2025;48.260;16.432;2023-06-04T06:52:58;100116.91;;;15.53;57.58
4022;BME280;2025;48.260;16.432;2023-06-04T06:55:27;100114.47;;;15.58;56.04
4022;BME280;2025;48.260;16.432;2023-06-04T06:57:54;100114.03;;;15.54;56.61
4022;BME280;2025;48.260;16.432;2023-06-04T07:00:21;100121.19;;;15.54;56.65
4022;BME280;2025;48.260;16.432;2023-06-04T07:02:48;100121.91;;;15.41;57.50
4022;BME280;2025;48.260;16.432;2023-06-04T07:05:15;100114.81;;;15.48;56.26
4022;BME280;2025;48.260;16.432;2023-06-04T07:07:43;100119.78;;;15.58;56.01
4022;BME280;2025;48.260;16.432;2023-06-04T07:10:10;100116.31;;;15.57;56.09
4022;BME280;2025;48.260;16.432;2023-06-04T07:12:38;100117.94;;;15.58;55.50
4022;BME280;2025;48.260;16.432;2023-06-04T07:15:06;100127.81;;;15.65;55.44
4022;BME280;2025;48.260;16.432;2023-06-04T07:17:33;100134.97;;;15.43;55.96
4022;BME280;2025;48.260;16.432;2023-06-04T07:20:00;100121.75;;;15.49;54.50
4022;BME280;2025;48.260;16.432;2023-06-04T07:22:29;100124.22;;;15.51;53.59
4022;BME280;2025;48.260;16.432;2023-06-04T07:24:56;100123.44;;;15.57;56.04
4022;BME280;2025;48.260;16.432;2023-06-04T07:27:23;100120.59;;;15.58;57.84
4022;BME280;2025;48.260;16.432;2023-06-04T07:29:52;100119.63;;;15.66;59.59
4022;BME280;2025;48.260;16.432;2023-06-04T07:32:19;100116.59;;;15.69;58.09
4022;BME280;2025;48.260;16.432;2023-06-04T07:34:46;100119.44;;;15.68;62.41
4022;BME280;2025;48.260;16.432;2023-06-04T07:37:13;100116.69;;;15.76;60.14
4022;BME280;2025;48.260;16.432;2023-06-04T07:39:41;100119.25;;;15.97;56.62
4022;BME280;2025;48.260;16.432;2023-06-04T07:42:08;100122.78;;;16.05;56.41
4022;BME280;2025;48.260;16.432;2023-06-04T07:44:36;100126.09;;;16.13;54.62
4022;BME280;2025;48.260;16.432;2023-06-04T07:47:05;100126.50;;;16.17;54.77
4022;BME280;2025;48.260;16.432;2023-06-04T07:49:32;100123.25;;;16.21;53.74
4022;BME280;2025;48.260;16.432;2023-06-04T07:51:59;100131.63;;;16.18;55.13
4022;BME280;2025;48.260;16.432;2023-06-04T07:54:26;100137.84;;;16.32;54.36
4022;BME280;2025;48.260;16.432;2023-06-04T07:56:53;100133.38;;;16.39;55.94
4022;BME280;2025;48.260;16.432;2023-06-04T07:59:21;100135.63;;;16.42;53.66
4022;BME280;2025;48.260;16.432;2023-06-04T08:01:49;100133.97;;;16.35;53.46
4022;BME280;2025;48.260;16.432;2023-06-04T08:04:18;100135.56;;;16.22;55.68
4022;BME280;2025;48.260;16.432;2023-06-04T08:06:45;100141.28;;;16.26;53.90
4022;BME280;2025;48.260;16.432;2023-06-04T08:09:12;100136.72;;;16.13;55.28
4022;BME280;2025;48.260;16.432;2023-06-04T08:11:41;100141.31;;;16.33;54.61
4022;BME280;2025;48.260;16.432;2023-06-04T08:14:09;100142.94;;;16.27;55.04
4022;BME280;2025;48.260;16.432;2023-06-04T08:16:36;100150.44;;;16.17;52.77
4022;BME280;2025;48.260;16.432;2023-06-04T08:19:03;100144.72;;;16.20;54.25
4022;BME280;2025;48.260;16.432;2023-06-04T08:21:31;100145.22;;;16.37;52.21
4022;BME280;2025;48.260;16.432;2023-06-04T08:23:58;100141.13;;;16.34;54.14
4022;BME280;2025;48.260;16.432;2023-06-04T08:26:26;100143.78;;;16.34;54.82
4022;BME280;2025;48.260;16.432;2023-06-04T08:28:53;100141.59;;;16.51;52.81
4022;BME280;2025;48.260;16.432;2023-06-04T08:31:20;100146.38;;;16.69;52.56
4022;BME280;2025;48.260;16.432;2023-06-04T08:33:47;100146.06;;;16.85;54.66
4022;BME280;2025;48.260;16.432;2023-06-04T08:36:15;100149.53;;;16.93;53.79
4022;BME280;2025;48.260;16.432;2023-06-04T08:38:43;100153.69;;;17.22;52.18
4022;BME280;2025;48.260;16.432;2023-06-04T08:41:15;100153.47;;;17.17;51.22
4022;BME280;2025;48.260;16.432;2023-06-04T08:43:42;100158.59;;;17.18;52.43
4022;BME280;2025;48.260;16.432;2023-06-04T08:46:11;100169.66;;;17.09;51.37
4022;BME280;2025;48.260;16.432;2023-06-04T08:48:39;100167.41;;;17.19;53.68
4022;BME280;2025;48.260;16.432;2023-06-04T08:51:06;100166.59;;;17.32;52.89
4022;BME280;2025;48.260;16.432;2023-06-04T08:53:35;100170.50;;;17.56;51.58
4022;BME280;2025;48.260;16.432;2023-06-04T08:56:04;100172.56;;;17.67;50.78
4022;BME280;2025;48.260;16.432;2023-06-04T08:58:31;100174.59;;;17.58;52.04
4022;BME280;2025;48.260;16.432;2023-06-04T09:00:59;100175.00;;;17.75;52.58
4022;BME280;2025;48.260;16.432;2023-06-04T09:03:26;100171.47;;;18.28;50.86
4022;BME280;2025;48.260;16.432;2023-06-04T09:05:56;100171.88;;;18.83;48.89
4022;BME280;2025;48.260;16.432;2023-06-04T09:08:24;100172.84;;;18.95;47.21
4022;BME280;2025;48.260;16.432;2023-06-04T09:10:53;100178.88;;;18.84;47.65
4022;BME280;2025;48.260;16.432;2023-06-04T09:13:22;100174.13;;;18.86;46.81
4022;BME280;2025;48.260;16.432;2023-06-04T09:16:00;100180.78;;;18.64;47.17
4022;BME280;2025;48.260;16.432;2023-06-04T09:18:28;100172.41;;;18.53;49.08
4022;BME280;2025;48.260;16.432;2023-06-04T09:21:05;100175.47;;;18.57;48.03
4022;BME280;2025;48.260;16.432;2023-06-04T09:23:34;100181.84;;;18.49;48.80
4022;BME280;2025;48.260;16.432;2023-06-04T09:26:08;100182.66;;;18.57;48.50
4022;BME280;2025;48.260;16.432;2023-06-04T09:28:39;100184.53;;;18.43;48.83
4022;BME280;2025;48.260;16.432;2023-06-04T09:31:08;100182.13;;;18.35;48.39
4022;BME280;2025;48.260;16.432;2023-06-04T09:33:42;100190.31;;;18.33;49.41
4022;BME280;2025;48.260;16.432;2023-06-04T09:36:10;100188.75;;;17.99;49.00
4022;BME280;2025;48.260;16.432;2023-06-04T09:38:37;100187.94;;;17.85;50.63
4022;BME280;2025;48.260;16.432;2023-06-04T09:41:10;100188.75;;;17.85;49.98
4022;BME280;2025;48.260;16.432;2023-06-04T09:43:38;100180.94;;;17.70;50.12
4022;BME280;2025;48.260;16.432;2023-06-04T09:46:10;100185.47;;;17.70;50.96
4022;BME280;2025;48.260;16.432;2023-06-04T09:48:37;100183.63;;;17.90;50.64
4022;BME280;2025;48.260;16.432;2023-06-04T09:51:09;100185.06;;;18.00;51.22
4022;BME280;2025;48.260;16.432;2023-06-04T09:53:37;100184.22;;;18.06;50.61
4022;BME280;2025;48.260;16.432;2023-06-04T09:56:06;100184.19;;;18.26;50.25
4022;BME280;2025;48.260;16.432;2023-06-04T09:58:34;100183.97;;;18.27;49.52
4022;BME280;2025;48.260;16.432;2023-06-04T10:01:04;100181.91;;;18.29;49.31
4022;BME280;2025;48.260;16.432;2023-06-04T10:03:33;100183.38;;;18.25;49.89
4022;BME280;2025;48.260;16.432;2023-06-04T10:06:02;100183.78;;;18.16;50.07
4022;BME280;2025;48.260;16.432;2023-06-04T10:08:30;100184.41;;;18.11;50.28
4022;BME280;2025;48.260;16.432;2023-06-04T10:10:59;100181.06;;;18.42;50.67
4022;BME280;2025;48.260;16.432;2023-06-04T10:13:28;100178.69;;;18.79;49.46
4022;BME280;2025;48.260;16.432;2023-06-04T10:15:57;100173.69;;;18.96;49.67
4022;BME280;2025;48.260;16.432;2023-06-04T10:18:27;100174.63;;;19.08;48.43
4022;BME280;2025;48.260;16.432;2023-06-04T10:20:55;100176.59;;;19.51;48.86
4022;BME280;2025;48.260;16.432;2023-06-04T10:23:23;100177.00;;;20.24;49.04
4022;BME280;2025;48.260;16.432;2023-06-04T10:25:51;100167.91;;;20.43;45.97
4022;BME280;2025;48.260;16.432;2023-06-04T10:28:20;100172.44;;;21.10;44.71
4022;BME280;2025;48.260;16.432;2023-06-04T10:30:47;100172.09;;;21.18;42.97
4022;BME280;2025;48.260;16.432;2023-06-04T10:33:17;100173.34;;;21.03;44.57
4022;BME280;2025;48.260;16.432;2023-06-04T10:35:46;100169.44;;;20.88;44.40
4022;BME280;2025;48.260;16.432;2023-06-04T10:38:14;100170.56;;;21.10;43.29
4022;BME280;2025;48.260;16.432;2023-06-04T10:40:42;100169.81;;;20.91;44.33
4022;BME280;2025;48.260;16.432;2023-06-04T10:43:10;100174.38;;;21.02;44.91
4022;BME280;2025;48.260;16.432;2023-06-04T10:45:38;100175.38;;;21.20;42.78
4022;BME280;2025;48.260;16.432;2023-06-04T10:48:06;100174.25;;;20.97;43.22
4022;BME280;2025;48.260;16.432;2023-06-04T10:50:34;100177.13;;;21.26;45.62
4022;BME280;2025;48.260;16.432;2023-06-04T10:53:03;100174.19;;;21.70;42.92
4022;BME280;2025;48.260;16.432;2023-06-04T10:55:31;100164.31;;;21.28;42.86
4022;BME280;2025;48.260;16.432;2023-06-04T10:58:01;100176.09;;;20.97;43.85
4022;BME280;2025;48.260;16.432;2023-06-04T11:00:36;100178.03;;;20.59;44.62
4022;BME280;2025;48.260;16.432;2023-06-04T11:03:04;100173.53;;;20.53;44.18
4022;BME280;2025;48.260;16.432;2023-06-04T11:05:36;100168.50;;;20.45;47.25
4022;BME280;2025;48.260;16.432;2023-06-04T11:08:05;100183.66;;;20.70;44.28
4022;BME280;2025;48.260;16.432;2023-06-04T11:10:34;100180.09;;;20.76;44.89
4022;BME280;2025;48.260;16.432;2023-06-04T11:13:02;100184.34;;;20.95;45.93
4022;BME280;2025;48.260;16.432;2023-06-04T11:15:38;100175.84;;;20.87;45.40
4022;BME280;2025;48.260;16.432;2023-06-04T11:18:05;100183.50;;;21.43;44.17
4022;BME280;2025;48.260;16.432;2023-06-04T11:20:32;100179.22;;;21.66;42.91
4022;BME280;2025;48.260;16.432;2023-06-04T11:22:59;100184.47;;;21.84;41.94
4022;BME280;2025;48.260;16.432;2023-06-04T11:25:30;100184.00;;;21.64;42.60
4022;BME280;2025;48.260;16.432;2023-06-04T11:27:59;100184.69;;;21.71;42.01
4022;BME280;2025;48.260;16.432;2023-06-04T11:30:27;100184.00;;;21.64;42.77
4022;BME280;2025;48.260;16.432;2023-06-04T11:33:01;100182.00;;;21.83;43.22
4022;BME280;2025;48.260;16.432;2023-06-04T11:35:28;100178.97;;;21.91;45.40
4022;BME280;2025;48.260;16.432;2023-06-04T11:37:56;100171.47;;;22.17;41.71
4022;BME280;2025;48.260;16.432;2023-06-04T11:40:24;100180.72;;;21.85;41.20
4022;BME280;2025;48.260;16.432;2023-06-04T11:42:53;100173.16;;;21.59;42.34
4022;BME280;2025;48.260;16.432;2023-06-04T11:45:22;100172.09;;;22.07;42.58
4022;BME280;2025;48.260;16.432;2023-06-04T11:47:52;100166.25;;;22.34;42.05
4022;BME280;2025;48.260;16.432;2023-06-04T11:50:19;100181.81;;;22.60;42.93
4022;BME280;2025;48.260;16.432;2023-06-04T11:52:47;100171.34;;;22.87;41.41
4022;BME280;2025;48.260;16.432;2023-06-04T11:55:15;100172.56;;;22.27;41.61
4022;BME280;2025;48.260;16.432;2023-06-04T11:57:46;100167.41;;;22.14;45.94
4022;BME280;2025;48.260;16.432;2023-06-04T12:00:15;100161.34;;;22.07;42.58
4022;BME280;2025;48.260;16.432;2023-06-04T12:02:51;100171.97;;;21.66;43.58
4022;BME280;2025;48.260;16.432;2023-06-04T12:05:19;100170.09;;;21.43;43.97
4022;BME280;2025;48.260;16.432;2023-06-04T12:07:48;100172.25;;;21.35;44.39
4022;BME280;2025;48.260;16.432;2023-06-04T12:10:16;100179.41;;;21.41;44.18
4022;BME280;2025;48.260;16.432;2023-06-04T12:12:43;100168.25;;;21.25;43.81
4022;BME280;2025;48.260;16.432;2023-06-04T12:15:10;100176.75;;;21.11;44.64
4022;BME280;2025;48.260;16.432;2023-06-04T12:17:49;100177.69;;;21.16;44.95
4022;BME280;2025;48.260;16.432;2023-06-04T12:20:16;100173.25;;;21.40;45.46
4022;BME280;2025;48.260;16.432;2023-06-04T12:22:46;100176.75;;;21.76;44.88
4022;BME280;2025;48.260;16.432;2023-06-04T12:25:24;100175.25;;;21.92;43.47
4022;BME280;2025;48.260;16.432;2023-06-04T12:27:51;100169.28;;;22.02;42.42
4022;BME280;2025;48.260;16.432;2023-06-04T12:30:18;100165.22;;;22.11;42.95
4022;BME280;2025;48.260;16.432;2023-06-04T12:32:47;100157.28;;;22.28;43.30
4022;BME280;2025;48.260;16.432;2023-06-04T12:35:14;100173.84;;;22.13;44.22
4022;BME280;2025;48.260;16.432;2023-06-04T12:37:42;100168.50;;;22.01;42.45
4022;BME280;2025;48.260;16.432;2023-06-04T12:40:09;100166.72;;;21.95;44.63
4022;BME280;2025;48.260;16.432;2023-06-04T12:42:37;100168.81;;;22.05;43.68
4022;BME280;2025;48.260;16.432;2023-06-04T12:45:05;100173.28;;;21.76;45.03
4022;BME280;2025;48.260;16.432;2023-06-04T12:47:32;100174.84;;;21.41;44.61
4022;BME280;2025;48.260;16.432;2023-06-04T12:50:00;100164.97;;;21.12;45.41
4022;BME280;2025;48.260;16.432;2023-06-04T12:52:28;100172.25;;;20.93;46.29
4022;BME280;2025;48.260;16.432;2023-06-04T12:54:55;100168.66;;;20.99;46.61
4022;BME280;2025;48.260;16.432;2023-06-04T12:57:23;100158.41;;;20.96;46.49
4022;BME280;2025;48.260;16.432;2023-06-04T12:59:50;100167.72;;;20.93;46.77
4022;BME280;2025;48.260;16.432;2023-06-04T13:02:17;100171.47;;;21.04;46.46
4022;BME280;2025;48.260;16.432;2023-06-04T13:04:44;100166.16;;;21.16;47.51
4022;BME280;2025;48.260;16.432;2023-06-04T13:07:13;100167.94;;;21.22;46.87